Time;durP1;ratioP1;P1;durP2;ratioP2;P2;SDS_P1;SDS_P2;PMS_P1;PMS_P2;Temp;Humidity;BMP_temperature;BMP_pressure;BME280_temperature;BME280_humidity;BME280_pressure;Samples;Min_cycle;Max_cycle;Signal;HPM_P1;HPM_P2
2024/02/03 00:00:39;;;;;;;23.17;11.15;;;5.00;99.90;;;;;;6217094;23;19997;-80
2024/02/03 00:03:10;;;;;;;24.88;11.73;;;5.40;99.90;;;;;;6192208;23;20461;-81
2024/02/03 00:05:40;;;;;;;22.67;9.90;;;5.30;99.90;;;;;;6217935;23;20341;-82
2024/02/03 00:08:11;;;;;;;21.85;9.52;;;5.50;99.90;;;;;;6242542;23;20016;-83
2024/02/03 00:10:40;;;;;;;23.85;10.40;;;5.20;99.90;;;;;;6216266;23;20036;-81
2024/02/03 00:13:09;;;;;;;20.50;10.80;;;4.90;99.90;;;;;;6242866;23;20028;-82
2024/02/03 00:15:37;;;;;;;26.70;9.93;;;5.20;99.90;;;;;;6165912;23;20021;-79
2024/02/03 00:18:07;;;;;;;19.38;9.27;;;5.40;99.90;;;;;;6216353;23;20060;-82
2024/02/03 00:20:37;;;;;;;23.30;10.43;;;4.60;99.90;;;;;;6217009;23;20015;-81
2024/02/03 00:23:06;;;;;;;19.77;10.15;;;5.80;99.90;;;;;;6216530;23;20036;-80
2024/02/03 00:25:35;;;;;;;29.33;10.68;;;5.20;99.90;;;;;;6216000;23;20009;-83
2024/02/03 00:28:05;;;;;;;23.10;10.85;;;5.30;99.90;;;;;;6216393;23;20208;-80
2024/02/03 00:30:34;;;;;;;22.30;9.95;;;5.30;99.90;;;;;;6241772;23;20116;-82
2024/02/03 00:33:03;;;;;;;22.30;10.43;;;5.10;99.90;;;;;;6215683;23;20013;-81
2024/02/03 00:35:32;;;;;;;21.30;9.43;;;5.40;99.90;;;;;;6216465;23;20031;-82
2024/02/03 00:38:02;;;;;;;20.13;9.30;;;4.50;99.90;;;;;;6216416;23;20005;-81
2024/02/03 00:40:31;;;;;;;21.98;9.98;;;5.40;99.90;;;;;;6216688;23;20024;-81
2024/02/03 00:43:01;;;;;;;23.73;10.15;;;5.40;99.90;;;;;;6242744;23;20023;-83
2024/02/03 00:45:30;;;;;;;23.38;10.40;;;5.40;99.90;;;;;;6216569;23;20001;-79
2024/02/03 00:48:03;;;;;;;22.48;9.95;;;5.30;99.90;;;;;;6216795;23;20064;-81
2024/02/03 00:50:35;;;;;;;21.57;10.07;;;5.30;99.90;;;;;;6215642;23;20020;-80
2024/02/03 00:53:06;;;;;;;21.58;9.63;;;5.40;99.90;;;;;;6217203;23;20275;-82
2024/02/03 00:55:41;;;;;;;20.40;9.80;;;5.30;99.90;;;;;;6217724;23;20024;-81
2024/02/03 00:58:10;;;;;;;20.27;8.73;;;5.20;99.90;;;;;;6150899;23;19998;-81
2024/02/03 01:00:41;;;;;;;17.95;9.45;;;5.30;99.90;;;;;;6150083;23;20065;-81
2024/02/03 01:03:11;;;;;;;19.85;9.25;;;5.40;99.90;;;;;;6150126;23;20029;-82
2024/02/03 01:05:40;;;;;;;22.55;9.50;;;5.30;99.90;;;;;;6127295;23;20053;-83
2024/02/03 01:08:10;;;;;;;19.90;9.57;;;5.30;99.90;;;;;;6151002;23;20014;-80
2024/02/03 01:10:39;;;;;;;21.08;9.75;;;5.30;99.90;;;;;;6149836;23;20014;-81
2024/02/03 01:13:08;;;;;;;18.80;8.43;;;5.40;99.90;;;;;;6150187;23;20026;-80
2024/02/03 01:15:40;;;;;;;25.33;9.65;;;4.00;99.90;;;;;;6124433;23;20002;-80
2024/02/03 01:18:10;;;;;;;22.23;9.40;;;5.30;99.90;;;;;;6124958;23;20002;-81
2024/02/03 01:20:39;;;;;;;21.30;9.60;;;5.30;99.90;;;;;;6125755;23;20236;-82
2024/02/03 01:23:09;;;;;;;20.83;10.18;;;5.30;99.90;;;;;;6124721;23;20018;-82
2024/02/03 01:25:38;;;;;;;21.67;9.32;;;5.70;99.90;;;;;;6125682;23;20014;-80
2024/02/03 01:28:07;;;;;;;19.42;9.00;;;3.60;99.90;;;;;;6125759;23;20028;-80
2024/02/03 01:30:36;;;;;;;22.45;9.77;;;5.30;99.90;;;;;;6212569;23;20044;-80
2024/02/03 01:33:05;;;;;;;20.55;10.05;;;5.30;99.90;;;;;;6215088;23;20016;-79
2024/02/03 01:35:36;;;;;;;25.33;10.45;;;5.30;99.90;;;;;;6241822;23;20016;-82
2024/02/03 01:38:05;;;;;;;24.40;10.80;;;5.40;99.90;;;;;;6215228;23;20072;-80
2024/02/03 01:40:38;;;;;;;21.08;9.23;;;5.80;99.90;;;;;;6211194;23;20024;-79
2024/02/03 01:43:09;;;;;;;21.48;10.25;;;5.30;99.90;;;;;;6210778;23;20028;-80
2024/02/03 01:45:38;;;;;;;19.80;8.10;;;5.00;99.90;;;;;;6210655;23;20029;-82
2024/02/03 01:48:08;;;;;;;17.88;8.65;;;5.30;99.90;;;;;;6213493;23;20001;-80
2024/02/03 01:50:38;;;;;;;19.48;9.13;;;5.70;99.90;;;;;;6210888;23;20048;-80
2024/02/03 01:53:07;;;;;;;20.85;8.75;;;5.50;99.90;;;;;;6211624;23;20024;-79
2024/02/03 01:55:39;;;;;;;21.25;9.93;;;5.30;99.90;;;;;;6212248;23;20013;-81
2024/02/03 01:58:08;;;;;;;18.60;8.80;;;5.50;99.90;;;;;;6211834;23;20013;-79
2024/02/03 02:00:40;;;;;;;18.30;8.40;;;5.40;99.90;;;;;;6211684;23;20021;-80
2024/02/03 02:03:10;;;;;;;20.95;9.05;;;5.40;99.90;;;;;;6210429;23;20028;-81
2024/02/03 02:05:39;;;;;;;21.63;10.13;;;5.50;99.90;;;;;;6210631;23;20024;-82
2024/02/03 02:08:08;;;;;;;17.63;8.60;;;4.10;99.90;;;;;;6210787;23;20091;-80
2024/02/03 02:10:39;;;;;;;21.73;9.18;;;5.60;99.90;;;;;;6212342;23;20021;-79
2024/02/03 02:13:07;;;;;;;19.35;9.38;;;5.50;99.90;;;;;;6212021;23;20041;-82
2024/02/03 02:15:36;;;;;;;17.17;8.18;;;5.50;99.90;;;;;;6212048;23;20025;-79
2024/02/03 02:18:06;;;;;;;17.73;7.75;;;5.50;99.90;;;;;;6211330;23;20001;-80
2024/02/03 02:20:36;;;;;;;17.00;7.28;;;5.50;99.90;;;;;;6210943;23;20021;-81
2024/02/03 02:23:05;;;;;;;15.95;8.65;;;5.50;99.90;;;;;;6213521;23;20019;-81
2024/02/03 02:25:39;;;;;;;17.27;8.13;;;5.50;99.90;;;;;;6213384;23;19998;-79
2024/02/03 02:28:08;;;;;;;18.95;7.68;;;5.50;99.90;;;;;;6211785;23;20024;-79
2024/02/03 02:30:37;;;;;;;22.48;8.65;;;5.60;99.90;;;;;;6211302;23;20013;-83
2024/02/03 02:33:08;;;;;;;15.57;7.40;;;5.60;99.90;;;;;;6211580;23;20023;-81
2024/02/03 02:36:17;;;;;;;16.52;7.53;;;5.60;99.90;;;;;;6210822;23;20013;-79
2024/02/03 02:39:00;;;;;;;14.23;7.75;;;5.70;99.90;;;;;;6120620;23;20074;-79
2024/02/03 02:41:29;;;;;;;17.85;8.43;;;5.60;99.90;;;;;;6122030;23;20022;-82
2024/02/03 02:43:58;;;;;;;16.60;8.13;;;5.60;99.90;;;;;;6098595;23;20021;-80
2024/02/03 02:46:30;;;;;;;18.35;7.72;;;6.00;99.90;;;;;;6120977;23;20038;-78
2024/02/03 02:48:59;;;;;;;16.15;8.13;;;5.80;99.90;;;;;;6121065;23;20002;-80
2024/02/03 02:51:28;;;;;;;14.82;8.07;;;5.90;99.90;;;;;;6096745;23;20058;-79
2024/02/03 02:54:02;;;;;;;18.58;8.15;;;5.80;99.90;;;;;;6121219;23;20050;-78
2024/02/03 02:56:31;;;;;;;19.02;8.07;;;6.10;99.90;;;;;;6096953;23;20029;-82
2024/02/03 02:59:05;;;;;;;15.00;6.85;;;5.80;99.90;;;;;;6097370;23;20021;-82
2024/02/03 03:01:36;;;;;;;18.60;8.05;;;5.60;99.90;;;;;;6072560;23;20007;-83
2024/02/03 03:04:05;;;;;;;18.98;6.97;;;4.20;99.90;;;;;;6120459;23;20062;-79
2024/02/03 03:06:34;;;;;;;16.00;8.13;;;5.60;99.90;;;;;;6118756;23;20026;-79
2024/02/03 03:09:04;;;;;;;16.35;7.13;;;4.30;99.90;;;;;;6097692;23;20046;-81
2024/02/03 03:11:33;;;;;;;15.63;6.68;;;5.50;99.90;;;;;;6122195;23;20071;-81
2024/02/03 03:14:02;;;;;;;17.48;7.70;;;5.50;99.90;;;;;;6120575;23;20086;-79
2024/02/03 03:16:32;;;;;;;19.48;7.93;;;5.50;99.90;;;;;;6166953;23;20314;-81
2024/02/03 03:19:01;;;;;;;14.45;6.82;;;5.50;99.90;;;;;;6210658;23;20004;-80
2024/02/03 03:21:30;;;;;;;16.60;7.32;;;5.50;99.90;;;;;;6210406;23;20013;-81
2024/02/03 03:24:00;;;;;;;19.30;7.78;;;5.50;99.90;;;;;;6211027;23;20001;-82
2024/02/03 03:26:30;;;;;;;17.48;7.55;;;5.50;99.90;;;;;;6209864;23;20069;-81
2024/02/03 03:28:59;;;;;;;16.33;7.53;;;5.30;99.90;;;;;;6209722;23;20048;-82
2024/02/03 03:31:28;;;;;;;16.73;7.82;;;4.60;99.90;;;;;;6211193;23;20015;-79
2024/02/03 03:33:57;;;;;;;14.02;6.03;;;5.70;99.90;;;;;;6211273;23;20028;-80
2024/02/03 03:36:29;;;;;;;15.35;6.38;;;5.60;99.90;;;;;;6211160;23;20005;-81
2024/02/03 03:38:58;;;;;;;15.50;6.93;;;5.50;99.90;;;;;;6210537;23;20016;-79
2024/02/03 03:41:32;;;;;;;15.70;7.03;;;5.50;99.90;;;;;;6210192;23;20028;-81
2024/02/03 03:44:01;;;;;;;14.48;7.38;;;5.60;99.90;;;;;;6210462;23;20020;-82
2024/02/03 03:46:34;;;;;;;14.57;7.28;;;5.60;99.90;;;;;;6211491;23;20011;-80
2024/02/03 03:49:07;;;;;;;14.30;7.00;;;5.70;99.90;;;;;;6187444;23;20040;-81
2024/02/03 03:51:37;;;;;;;14.80;6.88;;;5.60;99.90;;;;;;6211652;23;20033;-82
2024/02/03 03:54:07;;;;;;;18.42;7.57;;;4.90;99.90;;;;;;6210858;23;20044;-80
2024/02/03 03:56:37;;;;;;;17.35;6.57;;;5.60;99.90;;;;;;6211335;23;20017;-79
2024/02/03 03:59:07;;;;;;;14.93;7.68;;;5.60;99.90;;;;;;6209896;23;20013;-82
2024/02/03 04:01:36;;;;;;;16.55;7.65;;;5.60;99.90;;;;;;6211876;23;19996;-80
2024/02/03 04:04:05;;;;;;;17.42;7.57;;;6.60;99.90;;;;;;6210819;23;20032;-81
2024/02/03 04:06:34;;;;;;;19.77;7.40;;;5.60;99.90;;;;;;6209869;23;20020;-79
2024/02/03 04:09:05;;;;;;;18.90;8.68;;;5.50;99.90;;;;;;6210437;23;19997;-78
2024/02/03 04:11:37;;;;;;;22.60;9.38;;;5.80;99.90;;;;;;6209947;23;20023;-79
2024/02/03 04:17:39;;;;;;;27.27;12.15;;;5.60;99.90;;;;;;6090988;23;20098;-80
2024/02/03 04:20:10;;;;;;;28.88;11.95;;;5.60;99.90;;;;;;6068610;23;20010;-80
2024/02/03 04:22:39;;;;;;;17.40;9.05;;;5.70;99.90;;;;;;6090900;23;20009;-79
2024/02/03 04:25:08;;;;;;;16.30;7.80;;;5.20;99.90;;;;;;6091530;23;20013;-79
2024/02/03 04:27:38;;;;;;;14.73;6.47;;;5.70;99.90;;;;;;6066137;23;20041;-80
2024/02/03 04:30:09;;;;;;;16.58;6.63;;;5.70;99.90;;;;;;6066498;23;20010;-78
2024/02/03 04:32:52;;;;;;;14.77;6.68;;;5.80;99.90;;;;;;6090741;23;20022;-80
2024/02/03 04:35:22;;;;;;;14.82;7.20;;;5.10;99.90;;;;;;6067163;23;20019;-81
2024/02/03 04:37:51;;;;;;;14.07;6.72;;;5.70;99.90;;;;;;6067401;23;20022;-82
2024/02/03 04:40:19;;;;;;;15.10;7.18;;;5.90;99.90;;;;;;6105947;23;20018;-82
2024/02/03 04:43:02;;;;;;;15.32;6.78;;;5.80;99.90;;;;;;6154053;23;20064;-80
2024/02/03 04:45:40;;;;;;;15.55;6.65;;;5.90;99.90;;;;;;6179989;23;20028;-82
2024/02/03 04:48:14;;;;;;;18.50;7.75;;;4.90;99.90;;;;;;6175361;23;20004;-79
2024/02/03 04:50:43;;;;;;;16.58;8.80;;;6.00;99.90;;;;;;6155235;23;20001;-79
2024/02/03 04:53:17;;;;;;;15.15;7.93;;;6.10;99.90;;;;;;6092001;23;20018;-82
2024/02/03 04:55:46;;;;;;;19.20;8.82;;;6.20;99.90;;;;;;6092194;23;20021;-79
2024/02/03 04:58:18;;;;;;;20.27;9.45;;;5.80;99.90;;;;;;6066403;23;20019;-82
2024/02/03 05:00:47;;;;;;;14.98;6.78;;;6.00;99.90;;;;;;6067090;23;20011;-79
2024/02/03 05:03:16;;;;;;;18.17;8.23;;;6.00;99.90;;;;;;6091182;23;20030;-79
2024/02/03 05:05:45;;;;;;;16.35;7.20;;;6.10;99.90;;;;;;6089799;23;20027;-82
2024/02/03 05:08:14;;;;;;;14.82;7.15;;;6.10;99.90;;;;;;6107659;23;20015;-79
2024/02/03 05:10:43;;;;;;;12.70;6.25;;;6.20;99.90;;;;;;6119663;23;20062;-79
2024/02/03 05:13:12;;;;;;;11.80;6.22;;;6.00;99.90;;;;;;6097067;23;20025;-82
2024/02/03 05:15:42;;;;;;;13.05;6.43;;;6.20;99.90;;;;;;6121372;23;20031;-79
2024/02/03 05:18:11;;;;;;;11.63;5.80;;;6.10;99.90;;;;;;6097697;23;20093;-79
2024/02/03 05:20:40;;;;;;;13.52;6.32;;;6.50;99.90;;;;;;6121683;23;20065;-78
2024/02/03 05:23:09;;;;;;;11.88;6.22;;;6.20;99.90;;;;;;6121829;23;20035;-79
2024/02/03 05:25:40;;;;;;;11.85;5.90;;;6.50;99.90;;;;;;6210907;23;20017;-81
2024/02/03 05:28:10;;;;;;;12.95;5.63;;;5.20;99.90;;;;;;6211048;23;20017;-79
2024/02/03 05:30:39;;;;;;;10.05;5.20;;;6.20;99.90;;;;;;6185405;23;20113;-79
2024/02/03 05:33:09;;;;;;;12.27;6.32;;;6.20;99.90;;;;;;6210385;23;20017;-80
2024/02/03 05:35:38;;;;;;;13.88;6.25;;;6.30;99.90;;;;;;6211218;23;20009;-79
2024/02/03 05:38:07;;;;;;;14.55;5.60;;;6.50;99.90;;;;;;6186388;23;20017;-79
2024/02/03 05:40:38;;;;;;;17.52;6.55;;;6.40;99.90;;;;;;6198159;23;20027;-84
2024/02/03 05:43:08;;;;;;;12.43;5.65;;;6.40;99.90;;;;;;6210381;23;20020;-82
2024/02/03 05:45:37;;;;;;;10.40;5.30;;;5.20;99.90;;;;;;6210555;23;20017;-81
2024/02/03 05:48:07;;;;;;;9.80;5.70;;;6.20;99.90;;;;;;6210748;23;20036;-79
2024/02/03 05:50:38;;;;;;;9.95;5.00;;;6.50;99.90;;;;;;6209228;23;20017;-80
2024/02/03 05:53:07;;;;;;;13.70;5.97;;;6.50;99.90;;;;;;6209356;23;20048;-79
2024/02/03 05:55:36;;;;;;;12.48;5.28;;;6.50;99.90;;;;;;6211027;23;20034;-79
2024/02/03 05:58:05;;;;;;;12.10;5.82;;;6.50;99.90;;;;;;6210408;23;20016;-79
2024/02/03 06:00:34;;;;;;;12.60;5.50;;;6.50;99.90;;;;;;6210117;23;20032;-78
2024/02/03 06:03:03;;;;;;;12.75;5.70;;;6.50;99.90;;;;;;6212005;23;20009;-80
2024/02/03 06:05:32;;;;;;;13.27;4.90;;;6.50;99.90;;;;;;6210936;23;20049;-79
2024/02/03 06:08:02;;;;;;;22.48;9.75;;;5.90;99.90;;;;;;6208996;23;20009;-80
2024/02/03 06:10:37;;;;;;;27.48;12.07;;;5.90;99.90;;;;;;6210337;23;20028;-80
2024/02/03 06:13:07;;;;;;;26.60;11.23;;;6.50;99.90;;;;;;6208414;23;20044;-80
2024/02/03 06:15:37;;;;;;;22.55;11.50;;;5.20;99.90;;;;;;6208975;23;20005;-79
2024/02/03 06:18:07;;;;;;;14.88;7.50;;;6.50;99.90;;;;;;6209868;23;20015;-78
2024/02/03 06:20:36;;;;;;;12.65;6.15;;;6.60;99.90;;;;;;6209972;23;20009;-82
2024/02/03 06:23:07;;;;;;;12.50;5.32;;;6.50;99.90;;;;;;6209024;23;20012;-83
2024/02/03 06:25:53;;;;;;;10.07;4.60;;;6.50;99.90;;;;;;6211937;23;20009;-85
2024/02/03 06:28:32;;;;;;;10.50;4.60;;;6.60;99.90;;;;;;6211045;23;20081;-86
2024/02/03 06:31:10;;;;;;;8.63;4.22;;;6.70;99.90;;;;;;6209571;23;20024;-84
2024/02/03 06:33:42;;;;;;;8.00;4.10;;;6.60;99.90;;;;;;6183594;23;20032;-81
2024/02/03 06:36:12;;;;;;;11.15;4.50;;;6.60;99.90;;;;;;6210492;23;20100;-80
2024/02/03 06:39:21;;;;;;;9.02;4.40;;;6.60;99.90;;;;;;6213434;23;20009;-79
2024/02/03 06:46:35;;;;;;;9.45;3.92;;;6.80;99.90;;;;;;6065628;23;20034;-79
2024/02/03 06:52:55;;;;;;;10.90;4.88;;;6.70;99.90;;;;;;5899196;24;20041;-79
2024/02/03 06:55:40;;;;;;;19.17;8.23;;;6.70;99.90;;;;;;5895828;24;20013;-79
2024/02/03 06:58:26;;;;;;;28.42;12.23;;;6.80;99.90;;;;;;5895551;24;20010;-78
2024/02/03 07:04:07;;;;;;;42.08;20.25;;;6.80;99.90;;;;;;6005038;23;20043;-79
2024/02/03 07:06:48;;;;;;;14.95;8.32;;;7.00;99.90;;;;;;6005025;24;20020;-78
2024/02/03 07:09:24;;;;;;;36.72;25.00;;;7.00;99.90;;;;;;6006479;23;20020;-78
2024/02/03 07:12:51;;;;;;;58.95;45.13;;;7.10;99.90;;;;;;6007760;23;20060;-80
2024/02/03 07:15:57;;;;;;;14.55;8.43;;;5.80;99.90;;;;;;5979837;24;20029;-78
2024/02/03 07:19:01;;;;;;;10.25;5.13;;;7.30;99.90;;;;;;5931652;24;20486;-75
2024/02/03 07:22:43;;;;;;;;;;;7.40;99.90;;;;;;6007262;24;20015;-78
2024/02/03 07:25:18;;;;;;;7.40;4.13;;;7.50;99.90;;;;;;6040683;23;19921;-79
2024/02/03 07:28:33;;;;;;;9.98;5.45;;;7.60;99.90;;;;;;5924363;24;20021;-79
2024/02/03 07:34:53;;;;;;;24.23;13.32;;;7.60;99.90;;;;;;5868818;24;20010;-76
2024/02/03 07:37:28;;;;;;;8.75;4.93;;;8.00;99.90;;;;;;5870080;24;20053;-78
2024/02/03 07:43:52;;;;;;;12.80;5.40;;;8.20;99.90;;;;;;5950297;24;20035;-79
2024/02/03 07:46:36;;;;;;;8.95;4.88;;;8.30;99.90;;;;;;5987669;23;20123;-77
2024/02/03 07:49:14;;;;;;;5.65;3.40;;;8.50;99.90;;;;;;6038405;23;20049;-80
2024/02/03 07:51:49;;;;;;;6.47;3.88;;;8.60;99.90;;;;;;6016659;23;20011;-80
2024/02/03 07:54:31;;;;;;;7.70;2.75;;;8.70;99.90;;;;;;6061483;23;20011;-78
2024/02/03 08:00:11;;;;;;;5.85;3.10;;;9.00;99.90;;;;;;6130410;23;20065;-77
2024/02/03 08:03:34;;;;;;;4.57;2.53;;;9.00;99.90;;;;;;6149528;23;20029;-78
2024/02/03 08:06:07;;;;;;;7.18;3.83;;;9.00;99.90;;;;;;6151901;23;20001;-77
2024/02/03 08:08:47;;;;;;;4.32;2.78;;;9.00;99.90;;;;;;6126928;23;20054;-78
2024/02/03 08:11:45;;;;;;;8.40;3.13;;;9.10;99.90;;;;;;6181212;23;20076;-78
2024/02/03 08:14:37;;;;;;;8.30;4.45;;;9.00;99.90;;;;;;6147081;23;20029;-77
2024/02/03 08:17:07;;;;;;;6.32;3.13;;;9.00;99.90;;;;;;6123472;23;20014;-78
2024/02/03 08:19:40;;;;;;;6.18;4.18;;;9.00;99.90;;;;;;6146529;23;20033;-79
2024/02/03 08:22:15;;;;;;;6.28;3.55;;;9.00;99.90;;;;;;6146985;23;20040;-80
2024/02/03 08:24:47;;;;;;;6.60;3.38;;;9.00;99.90;;;;;;6145058;23;20084;-78
2024/02/03 08:27:19;;;;;;;8.75;4.80;;;9.10;99.90;;;;;;6147689;23;20072;-79
2024/02/03 08:29:57;;;;;;;5.10;2.50;;;9.10;99.90;;;;;;6058805;23;20424;-79
2024/02/03 08:32:53;;;;;;;7.45;2.90;;;9.10;99.90;;;;;;6059396;23;20020;-78
2024/02/03 08:35:31;;;;;;;4.82;2.70;;;9.20;99.90;;;;;;6058955;23;20036;-78
2024/02/03 08:38:01;;;;;;;4.40;2.93;;;9.30;99.90;;;;;;6058221;23;20047;-78
2024/02/03 08:40:41;;;;;;;5.28;2.65;;;9.10;99.90;;;;;;6059477;23;20242;-78
2024/02/03 08:43:16;;;;;;;13.00;6.13;;;9.40;99.90;;;;;;6059663;23;20029;-78
2024/02/03 08:45:53;;;;;;;9.32;4.93;;;9.30;99.90;;;;;;6012525;23;20057;-80
2024/02/03 08:48:26;;;;;;;6.57;3.80;;;9.50;99.90;;;;;;6028205;23;20094;-78
2024/02/03 08:51:04;;;;;;;4.70;2.78;;;9.30;99.90;;;;;;6028858;23;20106;-78
2024/02/03 08:53:33;;;;;;;5.97;2.88;;;9.70;99.90;;;;;;6002761;23;20497;-79
2024/02/03 08:56:09;;;;;;;4.32;2.47;;;9.80;99.90;;;;;;6026480;23;20019;-78
2024/02/03 08:58:41;;;;;;;5.35;3.42;;;9.80;99.90;;;;;;6067155;23;20045;-80
2024/02/03 09:01:15;;;;;;;7.78;3.65;;;9.80;99.90;;;;;;6114202;23;20026;-76
2024/02/03 09:03:54;;;;;;;5.68;2.78;;;9.90;99.90;;;;;;6089116;23;20054;-77
2024/02/03 09:06:25;;;;;;;5.10;3.17;;;10.00;99.90;;;;;;6112907;23;20023;-77
2024/02/03 09:08:55;;;;;;;6.28;2.83;;;10.10;99.90;;;;;;6147443;23;20045;-77
2024/02/03 09:11:27;;;;;;;4.38;2.22;;;10.10;99.90;;;;;;6146290;23;20025;-77
2024/02/03 09:14:09;;;;;;;5.28;2.53;;;10.00;99.90;;;;;;6121910;23;20022;-76
2024/02/03 09:16:41;;;;;;;9.90;2.80;;;10.00;99.90;;;;;;6172561;23;20021;-77
2024/02/03 09:19:18;;;;;;;8.65;5.30;;;9.90;99.90;;;;;;6167091;23;20068;-79
2024/02/03 09:22:14;;;;;;;6.18;3.15;;;10.20;99.90;;;;;;6203353;23;20024;-77
2024/02/03 09:24:47;;;;;;;4.38;2.75;;;9.90;99.90;;;;;;6205764;23;20081;-77
2024/02/03 09:27:20;;;;;;;5.47;2.85;;;9.80;99.90;;;;;;6205183;23;20032;-76
2024/02/03 09:29:54;;;;;;;7.22;2.92;;;9.40;99.90;;;;;;6233808;23;20027;-76
2024/02/03 09:32:28;;;;;;;;;;;9.70;99.90;;;;;;6231558;23;20021;-77
2024/02/03 09:34:59;;;;;;;9.57;5.45;;;9.70;99.90;;;;;;6183440;23;19939;-77
2024/02/03 09:37:35;;;;;;;9.65;3.10;;;9.70;99.90;;;;;;6231441;23;20017;-78
2024/02/03 09:40:12;;;;;;;4.75;3.40;;;9.70;99.90;;;;;;6201345;23;20025;-79
2024/02/03 09:42:41;;;;;;;7.57;3.88;;;9.80;99.90;;;;;;6197617;23;20025;-77
2024/02/03 09:45:22;;;;;;;11.45;5.82;;;9.80;99.90;;;;;;6201103;23;20056;-77
2024/02/03 09:48:07;;;;;;;6.32;3.05;;;9.80;99.90;;;;;;6199620;23;20017;-74
2024/02/03 09:50:42;;;;;;;22.33;12.10;;;10.00;99.90;;;;;;6201184;23;20024;-78
2024/02/03 09:53:17;;;;;;;31.02;14.23;;;10.00;99.90;;;;;;6201208;23;20021;-77
2024/02/03 09:55:46;;;;;;;87.53;40.47;;;10.80;99.90;;;;;;6131016;23;20047;-75
2024/02/03 09:58:16;;;;;;;11.77;6.18;;;10.00;99.90;;;;;;6198528;23;20446;-79
2024/02/03 10:00:53;;;;;;;8.20;5.03;;;9.80;99.90;;;;;;6169989;23;20022;-77
2024/02/03 10:03:22;;;;;;;19.40;7.70;;;9.90;99.90;;;;;;6169790;23;20029;-76
2024/02/03 10:06:03;;;;;;;25.00;12.32;;;9.90;99.90;;;;;;6145708;23;20112;-77
2024/02/03 10:08:34;;;;;;;22.40;10.98;;;10.00;99.90;;;;;;6172837;23;20026;-81
2024/02/03 10:11:05;;;;;;;34.28;19.98;;;10.00;99.90;;;;;;6150894;23;20085;-81
2024/02/03 10:13:40;;;;;;;6.18;3.85;;;10.00;99.90;;;;;;6151953;23;20029;-81
2024/02/03 10:16:11;;;;;;;12.20;7.75;;;10.10;99.90;;;;;;6175388;23;20028;-85
2024/02/03 10:18:48;;;;;;;8.52;5.60;;;10.10;99.90;;;;;;6149751;23;20021;-82
2024/02/03 10:21:27;;;;;;;6.25;3.85;;;10.20;99.90;;;;;;6149877;23;20057;-79
2024/02/03 10:24:06;;;;;;;6.43;3.05;;;10.20;99.90;;;;;;6174937;23;20021;-79
2024/02/03 10:26:38;;;;;;;7.72;3.22;;;10.30;99.90;;;;;;6149974;23;20020;-80
2024/02/03 10:29:29;;;;;;;5.97;2.83;;;11.60;99.90;;;;;;6150621;23;20048;-84
2024/02/03 10:32:09;;;;;;;8.15;3.67;;;9.40;99.90;;;;;;6174490;23;20080;-84
2024/02/03 10:34:39;;;;;;;6.88;3.60;;;9.40;99.90;;;;;;6174175;23;20032;-84
2024/02/03 10:37:28;;;;;;;5.25;2.42;;;10.20;99.90;;;;;;6152446;23;20017;-82
2024/02/03 10:40:04;;;;;;;4.22;1.98;;;10.30;99.90;;;;;;6213152;23;20810;-84
2024/02/03 10:42:36;;;;;;;4.32;2.67;;;10.20;99.90;;;;;;6209133;23;20123;-79
2024/02/03 10:45:21;;;;;;;4.90;2.00;;;10.20;99.90;;;;;;6186188;23;20129;-82
2024/02/03 10:48:13;;;;;;;5.25;1.98;;;10.80;99.90;;;;;;6135327;23;20059;-85
2024/02/03 10:51:18;;;;;;;5.65;3.05;;;10.20;99.90;;;;;;6239835;23;20036;-79
2024/02/03 11:00:03;;;;;;;4.05;2.13;;;10.30;99.90;;;;;;6107256;23;20089;-80
2024/02/03 11:02:40;;;;;;;3.80;2.10;;;10.30;99.90;;;;;;6122354;23;20030;-81
2024/02/03 11:08:53;;;;;;;5.63;2.38;;;10.30;99.90;;;;;;5992860;23;20023;-81
2024/02/03 11:11:53;;;;;;;5.47;2.28;;;10.30;99.90;;;;;;5987677;23;20058;-85
2024/02/03 11:14:31;;;;;;;4.05;2.75;;;10.10;99.90;;;;;;6009353;23;20052;-82
2024/02/03 11:17:10;;;;;;;;;;;10.30;99.90;;;;;;6009579;23;20044;-84
2024/02/03 11:20:06;;;;;;;8.82;4.53;;;10.10;99.90;;;;;;5977000;24;19918;-80
2024/02/03 11:22:43;;;;;;;6.00;2.70;;;10.50;99.90;;;;;;5999990;24;20032;-79
2024/02/03 11:25:16;;;;;;;5.85;2.75;;;10.70;99.90;;;;;;5998812;24;20399;-80
2024/02/03 11:28:06;;;;;;;5.25;2.42;;;10.60;99.90;;;;;;5975545;24;20020;-81
2024/02/03 11:31:01;;;;;;;10.55;6.60;;;10.40;99.90;;;;;;5976289;23;20394;-77
2024/02/03 11:33:51;;;;;;;3.63;2.40;;;10.70;99.90;;;;;;5976097;24;20031;-78
2024/02/03 11:36:31;;;;;;;4.57;2.70;;;11.10;99.90;;;;;;5991185;24;20020;-79
2024/02/03 11:41:51;;;;;;;2.78;1.50;;;10.60;99.90;;;;;;6054283;23;20028;-79
2024/02/03 11:44:23;;;;;;;4.32;1.52;;;10.70;99.90;;;;;;6057194;23;20027;-80
2024/02/03 11:47:00;;;;;;;3.63;1.90;;;10.60;99.90;;;;;;6068938;23;20458;-78
2024/02/03 11:49:38;;;;;;;11.07;5.97;;;10.60;99.90;;;;;;6091079;23;20026;-78
2024/02/03 11:52:09;;;;;;;5.15;2.97;;;10.60;99.90;;;;;;6090141;23;20412;-81
2024/02/03 11:54:41;;;;;;;2.72;1.65;;;10.60;99.90;;;;;;6113215;23;20078;-80
2024/02/03 11:57:13;;;;;;;9.75;4.68;;;10.70;99.90;;;;;;6115330;23;20029;-81
2024/02/03 11:59:49;;;;;;;5.10;2.45;;;10.70;99.90;;;;;;6089699;23;20051;-80
2024/02/03 12:02:32;;;;;;;3.97;1.80;;;11.10;99.90;;;;;;6066815;23;20025;-78
2024/02/03 12:05:05;;;;;;;3.78;1.85;;;11.30;99.90;;;;;;6088534;23;20070;-81
2024/02/03 12:07:43;;;;;;;4.00;1.43;;;11.30;99.90;;;;;;6087715;23;20046;-82
2024/02/03 12:10:18;;;;;;;3.30;1.25;;;11.40;99.90;;;;;;6111959;23;20579;-78
2024/02/03 12:12:47;;;;;;;3.70;1.10;;;11.40;99.90;;;;;;6125209;23;20049;-79
2024/02/03 12:16:11;;;;;;;3.00;1.58;;;11.20;99.90;;;;;;6117512;23;20022;-80
2024/02/03 12:18:59;;;;;;;3.55;1.60;;;11.10;99.90;;;;;;6117489;23;20028;-80
2024/02/03 12:21:40;;;;;;;;;;;10.90;99.90;;;;;;6116924;23;20026;-80
2024/02/03 12:24:15;;;;;;;7.18;4.47;;;10.80;99.90;;;;;;6140687;23;20394;-78
2024/02/03 12:26:46;;;;;;;3.38;1.80;;;10.70;99.90;;;;;;6113774;23;20017;-77
2024/02/03 12:29:42;;;;;;;2.80;0.88;;;10.70;99.90;;;;;;6093606;23;20022;-76
2024/02/03 12:32:27;;;;;;;3.58;1.33;;;10.70;99.90;;;;;;6116583;23;20076;-80
2024/02/03 12:35:02;;;;;;;3.78;0.90;;;10.70;99.90;;;;;;6143502;23;20022;-78
2024/02/03 12:37:35;;;;;;;3.10;1.10;;;10.90;99.90;;;;;;6118639;23;20030;-78
2024/02/03 12:42:50;;;;;;;4.28;1.92;;;11.30;99.90;;;;;;6186243;23;20107;-81
2024/02/03 12:45:19;;;;;;;3.45;1.48;;;11.40;99.90;;;;;;6201318;23;20020;-79
2024/02/03 12:47:51;;;;;;;3.92;2.08;;;11.20;99.90;;;;;;6167112;23;20022;-79
2024/02/03 12:50:33;;;;;;;4.93;3.00;;;11.00;99.90;;;;;;6138264;23;20025;-79
2024/02/03 12:53:08;;;;;;;3.17;2.10;;;10.90;99.90;;;;;;6137772;23;20117;-83
2024/02/03 12:55:38;;;;;;;4.43;3.17;;;10.90;99.90;;;;;;6139141;23;20079;-80
2024/02/03 12:58:16;;;;;;;3.53;1.70;;;10.50;99.90;;;;;;6116025;23;20096;-78
2024/02/03 13:00:45;;;;;;;2.95;1.40;;;10.90;99.90;;;;;;6142731;23;20037;-79
2024/02/03 13:03:15;;;;;;;3.90;2.30;;;10.20;99.90;;;;;;6113063;23;20046;-79
2024/02/03 13:05:48;;;;;;;3.33;1.83;;;10.80;99.90;;;;;;6138422;23;20068;-84
2024/02/03 13:08:19;;;;;;;;;;;11.00;99.90;;;;;;6115183;23;20077;-78
2024/02/03 13:10:53;;;;;;;3.28;1.45;;;10.90;99.90;;;;;;6116689;23;19917;-78
2024/02/03 13:13:23;;;;;;;3.25;1.17;;;10.80;99.90;;;;;;6140370;23;20026;-76
2024/02/03 13:15:53;;;;;;;3.63;1.70;;;10.70;99.90;;;;;;6136184;23;20078;-77
2024/02/03 13:18:32;;;;;;;2.47;1.45;;;10.70;99.90;;;;;;6107294;23;20015;-77
2024/02/03 13:21:06;;;;;;;1.98;0.80;;;10.70;99.90;;;;;;6172755;23;20470;-79
2024/02/03 13:23:34;;;;;;;3.35;0.93;;;10.70;99.90;;;;;;6170474;23;20095;-77
2024/02/03 13:26:32;;;;;;;2.42;1.17;;;10.70;99.90;;;;;;6172279;23;20036;-78
2024/02/03 13:29:02;;;;;;;2.35;0.80;;;10.70;99.90;;;;;;6196022;23;20041;-82
2024/02/03 13:31:41;;;;;;;3.30;1.52;;;10.60;99.90;;;;;;6194951;23;20084;-81
2024/02/03 13:34:18;;;;;;;3.58;1.00;;;10.70;99.90;;;;;;6175917;23;20118;-81
2024/02/03 13:36:53;;;;;;;2.28;1.08;;;10.60;99.90;;;;;;6152681;23;20028;-79
2024/02/03 13:40:25;;;;;;;2.17;1.23;;;10.60;99.90;;;;;;6159152;23;20020;-85
2024/02/03 13:43:07;;;;;;;3.17;1.00;;;10.70;99.90;;;;;;6207549;23;20170;-81
2024/02/03 13:45:41;;;;;;;2.33;0.95;;;10.60;99.90;;;;;;6157859;23;20024;-81
2024/02/03 13:48:29;;;;;;;2.67;0.88;;;10.60;99.90;;;;;;6205807;23;20017;-81
2024/02/03 13:51:02;;;;;;;3.03;1.60;;;10.50;99.90;;;;;;6208070;23;20017;-80
2024/02/03 13:53:59;;;;;;;2.25;0.73;;;10.60;99.90;;;;;;6123516;23;20029;-80
2024/02/03 13:56:55;;;;;;;2.70;0.98;;;10.60;99.90;;;;;;6105405;23;20034;-83
2024/02/03 13:59:28;;;;;;;2.63;1.42;;;10.50;99.90;;;;;;6128280;23;20053;-85
2024/02/03 14:02:33;;;;;;;3.13;1.13;;;10.50;99.90;;;;;;6060214;23;20031;-82
2024/02/03 14:05:16;;;;;;;1.77;0.85;;;10.50;99.90;;;;;;6031542;23;20040;-83
2024/02/03 14:07:51;;;;;;;1.73;0.80;;;10.50;99.90;;;;;;6008846;23;20034;-83
2024/02/03 14:10:42;;;;;;;2.15;0.73;;;10.50;99.90;;;;;;6033556;23;20027;-80